createdAt,value
2022-12-26T00:01:39.704Z,100162.50
2022-12-26T00:04:07.128Z,100153.09
2022-12-26T00:06:53.241Z,100149.47
2022-12-26T00:09:19.629Z,100150.84
2022-12-26T00:11:46.066Z,100146.34
2022-12-26T00:14:14.407Z,100147.09
2022-12-26T00:16:42.366Z,100148.97
2022-12-26T00:19:08.973Z,100147.56
2022-12-26T00:21:35.583Z,100146.63
2022-12-26T00:24:02.250Z,100144.47
2022-12-26T00:26:30.609Z,100139.28
2022-12-26T00:28:57.365Z,100125.69
2022-12-26T00:31:26.123Z,100128.13
2022-12-26T00:33:52.710Z,100128.63
2022-12-26T00:36:25.067Z,100137.16
2022-12-26T00:38:51.658Z,100136.34
2022-12-26T00:41:19.009Z,100129.97
2022-12-26T00:43:45.436Z,100130.09
2022-12-26T00:46:11.811Z,100137.66
2022-12-26T00:48:38.264Z,100140.41
2022-12-26T00:51:05.090Z,100146.19
2022-12-26T00:53:31.721Z,100139.94
2022-12-26T00:55:58.189Z,100136.75
2022-12-26T00:58:24.758Z,100133.19
2022-12-26T01:00:51.227Z,100121.34
2022-12-26T01:03:18.094Z,100129.06
2022-12-26T01:05:47.103Z,100132.59
2022-12-26T01:08:23.073Z,100139.69
2022-12-26T01:10:51.082Z,100148.56
2022-12-26T01:13:17.435Z,100148.97
2022-12-26T01:15:49.212Z,100149.31
2022-12-26T01:18:15.818Z,100143.16
2022-12-26T01:20:42.269Z,100147.53
2022-12-26T01:23:08.597Z,100154.38
2022-12-26T01:25:34.983Z,100153.34
2022-12-26T01:28:01.393Z,100148.34
2022-12-26T01:30:27.854Z,100141.41
2022-12-26T01:32:54.285Z,100147.88
2022-12-26T01:35:20.668Z,100144.59
2022-12-26T01:37:47.017Z,100150.84
2022-12-26T01:40:13.462Z,100166.63
2022-12-26T01:42:41.300Z,100170.06
2022-12-26T01:45:26.401Z,100167.00
2022-12-26T01:48:14.068Z,100169.47
2022-12-26T01:50:45.072Z,100166.88
2022-12-26T01:53:32.607Z,100174.44
2022-12-26T01:56:05.343Z,100168.28
2022-12-26T01:58:34.004Z,100171.94
2022-12-26T02:01:02.676Z,100180.38
2022-12-26T02:03:47.749Z,100183.47
2022-12-26T02:06:14.968Z,100186.78
2022-12-26T02:08:41.844Z,100187.00
2022-12-26T02:11:11.976Z,100181.56
2022-12-26T02:13:39.106Z,100192.34
2022-12-26T02:16:07.481Z,100176.81
2022-12-26T02:18:33.955Z,100191.50
2022-12-26T02:21:15.161Z,100199.56
2022-12-26T02:24:19.123Z,100199.22
2022-12-26T02:27:11.186Z,100200.03
2022-12-26T02:29:57.913Z,100197.44
2022-12-26T02:32:42.540Z,100196.25
2022-12-26T02:35:22.373Z,100203.34
2022-12-26T02:38:08.276Z,100195.44
2022-12-26T02:40:46.323Z,100183.78
2022-12-26T02:43:41.754Z,100186.75
2022-12-26T02:46:40.032Z,100194.09
2022-12-26T02:49:31.876Z,100184.38
2022-12-26T02:52:23.954Z,100193.25
2022-12-26T02:55:31.409Z,100185.78
2022-12-26T02:58:36.976Z,100186.38
2022-12-26T03:01:25.226Z,100180.09
2022-12-26T03:04:13.219Z,100182.81
2022-12-26T03:07:00.267Z,100171.78
2022-12-26T03:09:48.408Z,100163.16
2022-12-26T03:12:36.684Z,100182.72
2022-12-26T03:15:05.941Z,100192.03
2022-12-26T03:17:48.820Z,100198.09
2022-12-26T03:20:24.573Z,100184.09
2022-12-26T03:23:00.214Z,100175.94
2022-12-26T03:25:54.372Z,100175.81
2022-12-26T03:28:22.039Z,100188.47
2022-12-26T03:30:52.167Z,100189.19
2022-12-26T03:33:48.071Z,100189.91
2022-12-26T03:36:48.683Z,100184.66
2022-12-26T03:39:59.188Z,100182.06
2022-12-26T03:42:57.171Z,100184.06
2022-12-26T03:45:45.885Z,100177.69
2022-12-26T03:48:49.519Z,100178.72
2022-12-26T03:51:47.027Z,100182.41
2022-12-26T03:54:35.660Z,100183.31
2022-12-26T03:57:24.741Z,100175.41
2022-12-26T04:00:12.597Z,100170.28
2022-12-26T04:02:58.658Z,100175.50
2022-12-26T04:05:43.737Z,100172.31
2022-12-26T04:08:45.560Z,100170.56
2022-12-26T04:11:35.088Z,100167.94
2022-12-26T04:15:20.183Z,100173.75
2022-12-26T04:18:16.831Z,100168.06
2022-12-26T04:21:06.395Z,100178.56
2022-12-26T04:24:03.219Z,100181.16
2022-12-26T04:26:56.367Z,100181.16
2022-12-26T04:29:41.700Z,100186.94
2022-12-26T04:32:32.845Z,100193.19
2022-12-26T04:35:31.336Z,100209.63
2022-12-26T04:38:17.385Z,100218.00
2022-12-26T04:41:05.725Z,100216.75
2022-12-26T04:43:52.103Z,100212.16
2022-12-26T04:46:20.957Z,100210.31
2022-12-26T04:49:07.445Z,100200.50
2022-12-26T04:51:34.355Z,100202.53
2022-12-26T04:54:00.784Z,100195.59
2022-12-26T04:56:27.202Z,100194.84
2022-12-26T04:58:53.543Z,100207.72
2022-12-26T05:01:38.345Z,100188.00
2022-12-26T05:04:43.232Z,100195.22
2022-12-26T05:07:38.493Z,100179.72
2022-12-26T05:10:06.345Z,100178.97
2022-12-26T05:12:32.695Z,100176.03
2022-12-26T05:14:59.070Z,100167.75
2022-12-26T05:17:44.167Z,100181.72
2022-12-26T05:20:30.517Z,100194.03
2022-12-26T05:23:16.367Z,100190.91
2022-12-26T05:26:02.392Z,100200.63
2022-12-26T05:28:43.910Z,100197.44
2022-12-26T05:31:16.162Z,100185.75
2022-12-26T05:34:02.022Z,100190.00
2022-12-26T05:36:31.900Z,100185.25
2022-12-26T05:38:58.319Z,100198.84
2022-12-26T05:41:24.760Z,100203.50
2022-12-26T05:43:51.181Z,100196.00
2022-12-26T05:46:17.612Z,100215.19
2022-12-26T05:48:44.007Z,100206.56
2022-12-26T05:51:10.627Z,100196.41
2022-12-26T05:53:37.064Z,100207.31
2022-12-26T05:56:08.419Z,100206.50
2022-12-26T05:58:34.750Z,100216.22
2022-12-26T06:01:20.253Z,100209.88
2022-12-26T06:03:49.094Z,100202.75
2022-12-26T06:06:16.516Z,100202.53
2022-12-26T06:08:43.211Z,100203.06
2022-12-26T06:11:14.357Z,100208.09
2022-12-26T06:13:40.877Z,100230.25
2022-12-26T06:16:09.404Z,100219.47
2022-12-26T06:18:36.129Z,100226.72
2022-12-26T06:21:13.866Z,100220.78
2022-12-26T06:23:40.535Z,100222.69
2022-12-26T06:26:08.917Z,100222.22
2022-12-26T06:28:35.978Z,100220.06
2022-12-26T06:31:07.489Z,100230.03
2022-12-26T06:33:33.969Z,100227.06
2022-12-26T06:36:05.018Z,100221.13
2022-12-26T06:38:31.390Z,100216.75
2022-12-26T06:40:57.779Z,100219.09
2022-12-26T06:43:24.091Z,100216.16
2022-12-26T06:45:59.806Z,100216.63
2022-12-26T06:48:26.582Z,100218.75
2022-12-26T06:50:54.345Z,100214.72
2022-12-26T06:53:21.986Z,100218.19
2022-12-26T06:55:48.646Z,100212.84
2022-12-26T06:58:15.265Z,100208.34
2022-12-26T07:00:41.702Z,100216.09
2022-12-26T07:03:08.183Z,100225.72
2022-12-26T07:05:38.808Z,100226.53
2022-12-26T07:08:05.276Z,100216.56
2022-12-26T07:10:35.234Z,100218.72
2022-12-26T07:13:01.557Z,100217.88
2022-12-26T07:15:27.888Z,100211.16
2022-12-26T07:17:54.233Z,100217.66
2022-12-26T07:20:20.807Z,100227.13
2022-12-26T07:22:47.183Z,100228.28
2022-12-26T07:25:13.533Z,100244.66
2022-12-26T07:27:39.910Z,100250.22
2022-12-26T07:30:06.917Z,100254.47
2022-12-26T07:32:33.281Z,100269.28
2022-12-26T07:34:59.639Z,100270.66
2022-12-26T07:37:26.010Z,100271.38
2022-12-26T07:39:58.584Z,100281.28
2022-12-26T07:42:25.374Z,100276.03
2022-12-26T07:44:51.755Z,100279.56
2022-12-26T07:47:18.208Z,100281.13
2022-12-26T07:49:44.535Z,100287.19
2022-12-26T07:52:10.899Z,100276.97
2022-12-26T07:54:37.243Z,100284.88
2022-12-26T07:57:30.276Z,100285.84
2022-12-26T07:59:53.272Z,100283.34
2022-12-26T08:02:20.309Z,100283.78
2022-12-26T08:04:46.893Z,100284.13
2022-12-26T08:07:13.404Z,100273.59
2022-12-26T08:09:42.689Z,100274.78
2022-12-26T08:12:09.303Z,100268.25
2022-12-26T08:14:37.243Z,100273.31
2022-12-26T08:17:03.765Z,100266.44
2022-12-26T08:19:30.271Z,100255.44
2022-12-26T08:21:56.653Z,100251.91
2022-12-26T08:24:23.080Z,100245.75
2022-12-26T08:26:49.485Z,100255.66
2022-12-26T08:29:15.809Z,100281.06
2022-12-26T08:31:42.279Z,100268.88
2022-12-26T08:34:08.672Z,100256.34
2022-12-26T08:36:35.009Z,100254.97
2022-12-26T08:39:01.357Z,100265.22
2022-12-26T08:41:27.685Z,100267.50
2022-12-26T08:46:40.364Z,100301.63
2022-12-26T08:49:06.733Z,100302.75
2022-12-26T08:51:33.134Z,100292.34
2022-12-26T08:53:59.526Z,100315.91
2022-12-26T08:56:26.537Z,100328.81
2022-12-26T08:58:53.422Z,100326.44
2022-12-26T09:01:22.122Z,100331.22
2022-12-26T09:03:52.645Z,100340.28
2022-12-26T09:06:19.043Z,100341.75
2022-12-26T09:08:45.428Z,100343.41
2022-12-26T09:11:14.160Z,100345.44
2022-12-26T09:13:41.842Z,100349.69
2022-12-26T09:16:13.942Z,100343.06
2022-12-26T09:18:40.990Z,100345.00
2022-12-26T09:21:09.038Z,100366.88
2022-12-26T09:23:36.006Z,100365.38
2022-12-26T09:26:14.305Z,100373.59
2022-12-26T09:28:41.417Z,100380.75
2022-12-26T09:31:11.870Z,100378.16
2022-12-26T09:33:38.674Z,100376.66
2022-12-26T09:36:25.645Z,100380.81
2022-12-26T09:38:52.254Z,100377.47
2022-12-26T09:41:37.397Z,100373.47
2022-12-26T09:44:15.615Z,100357.94
2022-12-26T09:47:00.230Z,100350.00
2022-12-26T09:49:33.104Z,100357.94
2022-12-26T09:52:02.299Z,100366.94
2022-12-26T09:54:39.338Z,100389.53
2022-12-26T09:57:31.633Z,100391.34
2022-12-26T10:00:05.015Z,100386.00
2022-12-26T10:02:31.682Z,100385.81
2022-12-26T10:04:58.601Z,100389.13
2022-12-26T10:07:37.944Z,100391.75
2022-12-26T10:10:13.452Z,100375.44
2022-12-26T10:12:49.017Z,100361.31
2022-12-26T10:15:35.112Z,100361.13
2022-12-26T10:18:20.178Z,100364.09
2022-12-26T10:20:58.297Z,100347.75
2022-12-26T10:23:45.343Z,100359.72
2022-12-26T10:26:24.919Z,100349.91
2022-12-26T10:29:00.140Z,100373.94
2022-12-26T10:31:42.487Z,100385.91
2022-12-26T10:34:19.433Z,100391.94
2022-12-26T10:36:51.679Z,100385.84
2022-12-26T10:39:23.195Z,100378.38
2022-12-26T10:41:53.513Z,100375.19
2022-12-26T10:44:25.611Z,100389.28
2022-12-26T10:46:59.540Z,100391.47
2022-12-26T10:49:26.715Z,100391.97
2022-12-26T10:51:55.521Z,100395.16
2022-12-26T10:54:22.273Z,100393.25
2022-12-26T10:56:51.042Z,100396.81
2022-12-26T10:59:35.411Z,100401.94
2022-12-26T11:02:13.659Z,100407.06
2022-12-26T11:05:13.611Z,100412.94
2022-12-26T11:07:52.077Z,100416.41
2022-12-26T11:10:22.072Z,100409.56
2022-12-26T11:12:51.853Z,100410.97
2022-12-26T11:15:41.443Z,100408.72
2022-12-26T11:18:27.469Z,100412.78
2022-12-26T11:20:53.831Z,100413.63
2022-12-26T11:23:28.029Z,100420.97
2022-12-26T11:25:58.238Z,100416.94
2022-12-26T11:28:34.185Z,100417.88
2022-12-26T11:31:03.354Z,100414.34
2022-12-26T11:33:32.918Z,100409.63
2022-12-26T11:36:11.261Z,100410.44
2022-12-26T11:38:52.644Z,100415.66
2022-12-26T11:41:43.973Z,100423.34
2022-12-26T11:44:10.249Z,100426.91
2022-12-26T11:46:57.963Z,100415.16
2022-12-26T11:49:29.862Z,100420.72
2022-12-26T11:51:59.814Z,100408.66
2022-12-26T11:54:29.805Z,100406.44
2022-12-26T11:57:22.288Z,100403.44
2022-12-26T11:59:49.786Z,100400.38
2022-12-26T12:02:26.698Z,100400.25
2022-12-26T12:04:55.879Z,100403.34
2022-12-26T12:07:29.894Z,100411.53
2022-12-26T12:10:20.725Z,100407.50
2022-12-26T12:12:52.904Z,100406.66
2022-12-26T12:15:29.835Z,100397.53
2022-12-26T12:18:11.429Z,100392.31
2022-12-26T12:21:05.623Z,100389.00
2022-12-26T12:23:53.971Z,100388.28
2022-12-26T12:26:32.465Z,100380.81
2022-12-26T12:29:12.895Z,100376.53
2022-12-26T12:31:56.476Z,100367.53
2022-12-26T12:34:56.357Z,100368.59
2022-12-26T12:37:42.044Z,100371.34
2022-12-26T12:40:44.893Z,100370.84
2022-12-26T12:43:17.090Z,100368.34
2022-12-26T12:45:59.026Z,100371.69
2022-12-26T12:48:52.548Z,100367.78
2022-12-26T12:51:47.600Z,100367.66
2022-12-26T12:54:32.499Z,100371.00
2022-12-26T12:57:01.430Z,100377.63
2022-12-26T12:59:43.635Z,100369.81
2022-12-26T13:02:20.746Z,100362.59
2022-12-26T13:04:51.988Z,100361.75
2022-12-26T13:07:22.761Z,100356.63
2022-12-26T13:09:58.606Z,100353.44
2022-12-26T13:12:34.777Z,100352.72
2022-12-26T13:15:23.251Z,100349.66
2022-12-26T13:17:56.469Z,100348.84
2022-12-26T13:20:29.993Z,100339.22
2022-12-26T13:23:19.913Z,100348.22
2022-12-26T13:25:49.351Z,100338.03
2022-12-26T13:28:19.081Z,100350.72
2022-12-26T13:30:45.580Z,100338.84
2022-12-26T13:33:14.526Z,100340.03
2022-12-26T13:35:52.493Z,100337.66
2022-12-26T13:38:20.273Z,100337.81
2022-12-26T13:40:51.578Z,100332.94
2022-12-26T13:43:41.871Z,100337.91
2022-12-26T13:46:42.100Z,100323.91
2022-12-26T13:49:36.975Z,100323.19
2022-12-26T13:52:12.403Z,100341.31
2022-12-26T13:54:47.882Z,100350.03
2022-12-26T13:57:32.964Z,100344.75
2022-12-26T14:00:04.075Z,100354.69
2022-12-26T14:03:17.503Z,100344.75
2022-12-26T14:06:11.497Z,100331.81
2022-12-26T14:08:54.584Z,100332.88
2022-12-26T14:11:38.968Z,100329.84
2022-12-26T14:14:40.782Z,100344.56
2022-12-26T14:17:37.401Z,100356.13
2022-12-26T14:20:15.457Z,100360.84
2022-12-26T14:23:03.633Z,100359.31
2022-12-26T14:25:36.612Z,100354.13
2022-12-26T14:28:17.224Z,100354.28
2022-12-26T14:30:52.771Z,100369.38
2022-12-26T14:33:40.650Z,100379.78
2022-12-26T14:36:32.484Z,100386.56
2022-12-26T14:39:23.021Z,100376.72
2022-12-26T14:42:26.219Z,100370.84
2022-12-26T14:44:57.327Z,100382.75
2022-12-26T14:47:40.067Z,100372.31
2022-12-26T14:50:42.481Z,100372.91
2022-12-26T14:53:30.065Z,100375.19
2022-12-26T14:56:33.164Z,100364.66
2022-12-26T14:59:24.655Z,100385.19
2022-12-26T15:02:01.565Z,100373.69
2022-12-26T15:04:44.514Z,100377.19
2022-12-26T15:07:43.128Z,100379.09
2022-12-26T15:10:29.484Z,100382.03
2022-12-26T15:13:14.601Z,100409.41
2022-12-26T15:15:41.194Z,100406.16
2022-12-26T15:18:26.080Z,100429.00
2022-12-26T15:21:21.438Z,100408.84
2022-12-26T15:24:06.905Z,100393.31
2022-12-26T15:26:53.301Z,100393.22
2022-12-26T15:29:35.677Z,100395.63
2022-12-26T15:32:27.538Z,100378.78
2022-12-26T15:35:15.372Z,100367.84
2022-12-26T15:38:04.157Z,100387.59
2022-12-26T15:40:35.479Z,100374.84
2022-12-26T15:43:20.253Z,100393.28
2022-12-26T15:46:15.819Z,100394.63
2022-12-26T15:48:57.294Z,100383.66
2022-12-26T15:51:29.732Z,100374.31
2022-12-26T15:54:02.031Z,100366.34
2022-12-26T15:56:50.178Z,100359.13
2022-12-26T15:59:31.825Z,100342.50
2022-12-26T16:01:58.669Z,100357.69
2022-12-26T16:04:30.227Z,100365.31
2022-12-26T16:07:25.578Z,100390.88
2022-12-26T16:09:54.659Z,100393.50
2022-12-26T16:12:34.223Z,100406.69
2022-12-26T16:15:09.732Z,100410.53
2022-12-26T16:17:40.314Z,100412.88
2022-12-26T16:21:00.486Z,100422.22
2022-12-26T16:23:29.083Z,100431.56
2022-12-26T16:25:56.951Z,100427.59
2022-12-26T16:28:26.085Z,100441.28
2022-12-26T16:30:52.662Z,100453.28
2022-12-26T16:33:19.533Z,100458.13
2022-12-26T16:35:46.189Z,100474.78
2022-12-26T16:38:18.204Z,100484.78
2022-12-26T16:40:49.361Z,100479.78
2022-12-26T16:43:18.685Z,100488.63
2022-12-26T16:45:46.957Z,100500.44
2022-12-26T16:48:15.950Z,100501.28
2022-12-26T16:50:48.555Z,100505.28
2022-12-26T16:53:17.698Z,100509.13
2022-12-26T16:56:13.337Z,100488.28
2022-12-26T16:58:39.855Z,100489.28
2022-12-26T17:01:07.587Z,100494.78
2022-12-26T17:03:59.388Z,100508.25
2022-12-26T17:06:32.241Z,100510.59
2022-12-26T17:09:07.518Z,100499.63
2022-12-26T17:11:36.282Z,100496.78
2022-12-26T17:14:04.364Z,100496.09
2022-12-26T17:16:31.818Z,100481.47
2022-12-26T17:19:18.160Z,100473.44
2022-12-26T17:22:23.264Z,100486.44
2022-12-26T17:24:51.017Z,100493.09
2022-12-26T17:27:23.344Z,100484.09
2022-12-26T17:30:20.101Z,100479.06
2022-12-26T17:32:47.343Z,100467.09
2022-12-26T17:35:17.677Z,100440.78
2022-12-26T17:37:44.853Z,100428.09
2022-12-26T17:40:14.062Z,100448.59
2022-12-26T17:42:45.138Z,100463.06
2022-12-26T17:45:22.962Z,100466.72
2022-12-26T17:47:56.970Z,100473.59
2022-12-26T17:50:25.234Z,100479.22
2022-12-26T17:52:51.747Z,100491.56
2022-12-26T17:55:24.836Z,100491.03
2022-12-26T17:57:51.522Z,100511.50
2022-12-26T18:00:23.361Z,100524.81
2022-12-26T18:02:50.138Z,100528.16
2022-12-26T18:05:18.505Z,100536.97
2022-12-26T18:07:46.337Z,100536.97
2022-12-26T18:10:18.526Z,100548.59
2022-12-26T18:12:45.121Z,100559.59
2022-12-26T18:15:12.921Z,100559.91
2022-12-26T18:17:40.436Z,100563.41
2022-12-26T18:20:08.413Z,100563.84
2022-12-26T18:22:34.671Z,100570.84
2022-12-26T18:25:01.004Z,100575.16
2022-12-26T18:27:32.130Z,100587.81
2022-12-26T18:29:58.795Z,100602.31
2022-12-26T18:32:30.830Z,100605.47
2022-12-26T18:34:57.666Z,100614.78
2022-12-26T18:37:26.248Z,100633.75
2022-12-26T18:39:52.720Z,100629.94
2022-12-26T18:42:19.324Z,100654.25
2022-12-26T18:44:45.811Z,100657.19
2022-12-26T18:47:13.730Z,100664.00
2022-12-26T18:49:40.673Z,100673.66
2022-12-26T18:52:07.779Z,100674.47
2022-12-26T18:54:36.114Z,100670.63
2022-12-26T18:57:07.468Z,100668.56
2022-12-26T18:59:34.092Z,100665.09
2022-12-26T19:02:00.749Z,100654.44
2022-12-26T19:04:27.225Z,100658.53
2022-12-26T19:06:53.612Z,100654.16
2022-12-26T19:09:20.142Z,100659.66
2022-12-26T19:11:46.663Z,100661.13
2022-12-26T19:14:21.393Z,100676.75
2022-12-26T19:16:47.855Z,100690.47
2022-12-26T19:19:14.303Z,100692.88
2022-12-26T19:21:40.662Z,100695.50
2022-12-26T19:24:07.273Z,100691.09
2022-12-26T19:26:33.661Z,100701.34
2022-12-26T19:28:59.985Z,100710.78
2022-12-26T19:31:26.544Z,100716.56
2022-12-26T19:33:52.917Z,100722.34
2022-12-26T19:36:19.312Z,100723.91
2022-12-26T19:38:45.727Z,100738.56
2022-12-26T19:41:13.832Z,100744.03
2022-12-26T19:43:40.468Z,100754.09
2022-12-26T19:46:09.224Z,100761.94
2022-12-26T19:48:36.613Z,100765.47
2022-12-26T19:51:05.537Z,100775.66
2022-12-26T19:53:32.040Z,100788.09
2022-12-26T19:55:58.430Z,100789.47
2022-12-26T19:58:25.034Z,100792.38
2022-12-26T20:00:51.464Z,100794.41
2022-12-26T20:03:17.950Z,100788.41
2022-12-26T20:05:44.561Z,100794.50
2022-12-26T20:08:11.312Z,100789.69
2022-12-26T20:10:37.657Z,100788.63
2022-12-26T20:13:04.058Z,100800.38
2022-12-26T20:15:32.538Z,100798.03
2022-12-26T20:17:58.995Z,100812.38
2022-12-26T20:20:25.381Z,100821.06
2022-12-26T20:22:53.365Z,100828.63
2022-12-26T20:25:19.836Z,100833.72
2022-12-26T20:27:46.230Z,100831.94
2022-12-26T20:30:12.802Z,100851.69
2022-12-26T20:32:43.935Z,100861.31
2022-12-26T20:35:10.365Z,100875.06
2022-12-26T20:37:36.744Z,100872.53
2022-12-26T20:40:03.274Z,100883.63
2022-12-26T20:42:29.746Z,100891.84
2022-12-26T20:44:56.116Z,100905.97
2022-12-26T20:47:22.463Z,100906.28
2022-12-26T20:49:48.917Z,100925.91
2022-12-26T20:52:18.366Z,100937.84
2022-12-26T20:54:44.733Z,100950.22
2022-12-26T20:57:11.070Z,100955.03
2022-12-26T20:59:37.408Z,100959.16
2022-12-26T21:02:04.023Z,100962.28
2022-12-26T21:04:30.837Z,100963.97
2022-12-26T21:06:57.450Z,100966.84
2022-12-26T21:09:24.008Z,100971.19
2022-12-26T21:11:50.472Z,100971.53
2022-12-26T21:14:20.614Z,100985.44
2022-12-26T21:16:55.470Z,100971.25
2022-12-26T21:19:23.143Z,100976.91
2022-12-26T21:21:51.900Z,100983.06
2022-12-26T21:24:21.396Z,100989.66
2022-12-26T21:26:48.389Z,100990.91
2022-12-26T21:29:20.338Z,100991.94
2022-12-26T21:31:47.253Z,101005.13
2022-12-26T21:34:15.628Z,101013.47
2022-12-26T21:37:02.165Z,101018.78
2022-12-26T21:39:28.705Z,101019.78
2022-12-26T21:41:55.106Z,101027.19
2022-12-26T21:44:21.515Z,101039.13
2022-12-26T21:46:47.871Z,101048.28
2022-12-26T21:49:14.262Z,101047.72
2022-12-26T21:51:40.605Z,101055.06
2022-12-26T21:54:25.794Z,101054.84
2022-12-26T21:56:52.176Z,101068.94
2022-12-26T21:59:36.903Z,101072.44
2022-12-26T22:02:03.452Z,101069.81
2022-12-26T22:04:30.006Z,101076.25
2022-12-26T22:06:56.537Z,101086.72
2022-12-26T22:09:22.929Z,101083.31
2022-12-26T22:12:07.884Z,101101.66
2022-12-26T22:14:34.233Z,101112.88
2022-12-26T22:17:00.587Z,101116.09
2022-12-26T22:19:27.018Z,101121.50
2022-12-26T22:21:54.705Z,101135.06
2022-12-26T22:24:27.277Z,101133.38
2022-12-26T22:26:53.658Z,101144.63
2022-12-26T22:29:20.029Z,101154.22
2022-12-26T22:31:46.467Z,101156.97
2022-12-26T22:34:14.425Z,101166.34
2022-12-26T22:36:41.416Z,101167.41
2022-12-26T22:39:08.034Z,101177.31
2022-12-26T22:41:34.528Z,101182.72
2022-12-26T22:44:00.923Z,101184.16
2022-12-26T22:46:27.424Z,101187.88
2022-12-26T22:48:53.949Z,101194.63
2022-12-26T22:51:22.918Z,101196.59
2022-12-26T22:53:49.915Z,101205.88
2022-12-26T22:56:16.304Z,101192.97
2022-12-26T22:58:43.023Z,101200.31
2022-12-26T23:01:14.254Z,101214.09
2022-12-26T23:03:40.987Z,101209.63
2022-12-26T23:06:18.959Z,101220.59
2022-12-26T23:08:45.484Z,101227.91
2022-12-26T23:11:12.118Z,101229.31
2022-12-26T23:13:38.683Z,101218.94
2022-12-26T23:16:11.407Z,101229.63
2022-12-26T23:19:06.114Z,101227.66
2022-12-26T23:21:41.729Z,101225.69
2022-12-26T23:24:16.107Z,101237.78
2022-12-26T23:26:45.192Z,101231.34
2022-12-26T23:29:32.539Z,101233.31
2022-12-26T23:31:58.856Z,101236.13
2022-12-26T23:34:25.773Z,101244.28
2022-12-26T23:36:52.119Z,101240.63
2022-12-26T23:39:18.509Z,101242.88
2022-12-26T23:41:45.040Z,101246.00
2022-12-26T23:44:11.430Z,101247.94
2022-12-26T23:46:39.543Z,101244.56
2022-12-26T23:49:05.829Z,101250.47
2022-12-26T23:51:32.176Z,101253.28
2022-12-26T23:53:58.572Z,101256.69
2022-12-26T23:56:27.565Z,101258.06
2022-12-26T23:58:54.864Z,101258.91
